KMOT/MOT METAR and TAF weather

Enter ICAO airport designator
Station Type Date Time Source
KMOT METAR 2020/04/04 05:54 UTC NOAA

KMOT 040554Z AUTO 11004KT 10SM CLR M09/M13 A3015 RMK AO2 SLP244 T10941133 11039 21094 410391133 58010


Station Type Date Time Source
KMOT Decoded METAR 2020/04/04 05:54 UTC NOAA

MINOT INTERNATIONAL AIRPORT , ND, United States (KMOT) 48-16N 101-17W 519M
Apr 04, 2020 - 01:54 AM EDT / 2020.04.04 0554 UTC
Wind: from the ESE (110 degrees) at 5 MPH (4 KT):0
Visibility: 10 mile(s):0
Sky conditions: clear
Temperature: 15.1 F (-9.4 C)
Windchill: 6 F (-14 C):1
Dew Point: 8.1 F (-13.3 C)
Relative Humidity: 73%
Pressure (altimeter): 30.15 in. Hg (1020 hPa)
Pressure tendency: 0.03 inches (1.0 hPa) lower than three hours ago
ob: KMOT 040554Z AUTO 11004KT 10SM CLR M09/M13 A3015 RMK AO2 SLP244 T10941133 11039 21094 410391133 58010
cycle: 6

Station Type Date Time Source
KMOT TAF 2020/04/04 06:22 UTC NOAA

TAF KMOT 040520Z 0406/0506 15005KT P6SM SCT250
FM042100 13016G24KT P6SM BKN090
FM050400 20005KT P6SM SCT120

Example: see airport list